sensor_id;sensor_type;location;lat;lon;timestamp;pressure;altitude;pressure_sealevel;temperature;humidity
20710;BME280;10516;51.518;9.864;2023-12-29T00:01:14;98249.97;;;5.90;86.34
20710;BME280;10516;51.518;9.864;2023-12-29T00:03:40;98247.75;;;5.99;86.09
20710;BME280;10516;51.518;9.864;2023-12-29T00:06:05;98237.06;;;5.94;86.05
20710;BME280;10516;51.518;9.864;2023-12-29T00:08:31;98218.06;;;5.85;86.58
20710;BME280;10516;51.518;9.864;2023-12-29T00:10:57;98218.06;;;5.85;87.11
20710;BME280;10516;51.518;9.864;2023-12-29T00:13:22;98220.84;;;5.90;86.72
20710;BME280;10516;51.518;9.864;2023-12-29T00:15:53;98207.13;;;5.82;86.37
20710;BME280;10516;51.518;9.864;2023-12-29T00:18:19;98212.41;;;5.82;86.65
20710;BME280;10516;51.518;9.864;2023-12-29T00:20:44;98203.81;;;5.86;86.31
20710;BME280;10516;51.518;9.864;2023-12-29T00:23:10;98211.38;;;5.94;85.93
20710;BME280;10516;51.518;9.864;2023-12-29T00:25:38;98204.63;;;5.87;86.06
20710;BME280;10516;51.518;9.864;2023-12-29T00:28:04;98194.56;;;5.77;86.93
20710;BME280;10516;51.518;9.864;2023-12-29T00:30:30;98208.53;;;5.84;86.84
20710;BME280;10516;51.518;9.864;2023-12-29T00:32:56;98206.31;;;5.93;86.55
20710;BME280;10516;51.518;9.864;2023-12-29T00:35:21;98197.69;;;5.86;87.01
20710;BME280;10516;51.518;9.864;2023-12-29T00:37:47;98189.63;;;5.81;86.29
20710;BME280;10516;51.518;9.864;2023-12-29T00:40:12;98204.13;;;5.90;86.24
20710;BME280;10516;51.518;9.864;2023-12-29T00:42:38;98201.97;;;5.87;86.68
20710;BME280;10516;51.518;9.864;2023-12-29T00:45:04;98206.00;;;5.89;86.56
20710;BME280;10516;51.518;9.864;2023-12-29T00:47:30;98206.56;;;5.91;86.65
20710;BME280;10516;51.518;9.864;2023-12-29T00:49:56;98202.88;;;5.92;86.47
20710;BME280;10516;51.518;9.864;2023-12-29T00:52:21;98200.44;;;5.79;87.15
20710;BME280;10516;51.518;9.864;2023-12-29T00:54:46;98204.22;;;5.83;87.33
20710;BME280;10516;51.518;9.864;2023-12-29T00:57:12;98202.63;;;5.82;86.44
20710;BME280;10516;51.518;9.864;2023-12-29T00:59:38;98207.84;;;5.89;86.99
20710;BME280;10516;51.518;9.864;2023-12-29T01:02:06;98196.88;;;5.85;86.91
20710;BME280;10516;51.518;9.864;2023-12-29T01:04:33;98200.69;;;5.89;86.28
20710;BME280;10516;51.518;9.864;2023-12-29T01:06:58;98186.88;;;5.87;86.72
20710;BME280;10516;51.518;9.864;2023-12-29T01:09:26;98195.16;;;5.91;87.43
20710;BME280;10516;51.518;9.864;2023-12-29T01:11:51;98200.69;;;5.89;87.46
20710;BME280;10516;51.518;9.864;2023-12-29T01:14:16;98201.59;;;5.95;86.83
20710;BME280;10516;51.518;9.864;2023-12-29T01:16:42;98197.81;;;5.91;86.99
20710;BME280;10516;51.518;9.864;2023-12-29T01:19:07;98204.56;;;5.98;86.76
20710;BME280;10516;51.518;9.864;2023-12-29T01:21:32;98200.56;;;5.96;87.30
20710;BME280;10516;51.518;9.864;2023-12-29T01:24:02;98202.03;;;6.03;86.37
20710;BME280;10516;51.518;9.864;2023-12-29T01:26:29;98192.50;;;6.02;87.08
20710;BME280;10516;51.518;9.864;2023-12-29T01:28:55;98209.41;;;6.01;86.55
20710;BME280;10516;51.518;9.864;2023-12-29T01:31:20;98189.84;;;6.02;87.19
20710;BME280;10516;51.518;9.864;2023-12-29T01:33:45;98174.97;;;6.01;87.83
20710;BME280;10516;51.518;9.864;2023-12-29T01:36:17;98178.31;;;5.97;87.97
20710;BME280;10516;51.518;9.864;2023-12-29T01:38:43;98169.69;;;6.01;87.44
20710;BME280;10516;51.518;9.864;2023-12-29T01:41:08;98169.22;;;6.04;87.90
20710;BME280;10516;51.518;9.864;2023-12-29T01:43:33;98161.88;;;5.95;87.82
20710;BME280;10516;51.518;9.864;2023-12-29T01:45:59;98162.28;;;6.03;87.59
20710;BME280;10516;51.518;9.864;2023-12-29T01:48:24;98152.97;;;6.01;87.28
20710;BME280;10516;51.518;9.864;2023-12-29T01:50:50;98148.94;;;5.98;88.09
20710;BME280;10516;51.518;9.864;2023-12-29T01:53:15;98148.81;;;6.05;88.01
20710;BME280;10516;51.518;9.864;2023-12-29T01:55:41;98160.22;;;6.05;87.60
20710;BME280;10516;51.518;9.864;2023-12-29T01:58:07;98143.66;;;5.98;87.78
20710;BME280;10516;51.518;9.864;2023-12-29T02:00:33;98142.22;;;6.07;87.22
20710;BME280;10516;51.518;9.864;2023-12-29T02:02:59;98148.94;;;5.98;88.04
20710;BME280;10516;51.518;9.864;2023-12-29T02:05:26;98165.44;;;6.00;88.01
20710;BME280;10516;51.518;9.864;2023-12-29T02:07:53;98162.66;;;6.07;88.49
20710;BME280;10516;51.518;9.864;2023-12-29T02:10:19;98143.44;;;6.00;88.00
20710;BME280;10516;51.518;9.864;2023-12-29T02:12:47;98139.84;;;6.06;87.58
20710;BME280;10516;51.518;9.864;2023-12-29T02:15:13;98126.84;;;6.04;88.27
20710;BME280;10516;51.518;9.864;2023-12-29T02:17:47;98121.97;;;6.13;88.11
20710;BME280;10516;51.518;9.864;2023-12-29T02:20:16;98132.06;;;6.16;87.21
20710;BME280;10516;51.518;9.864;2023-12-29T02:22:42;98118.50;;;6.13;87.65
20710;BME280;10516;51.518;9.864;2023-12-29T02:25:08;98125.34;;;6.25;87.26
20710;BME280;10516;51.518;9.864;2023-12-29T02:30:45;98131.91;;;6.23;87.77
20710;BME280;10516;51.518;9.864;2023-12-29T02:33:16;98121.00;;;6.19;86.96
20710;BME280;10516;51.518;9.864;2023-12-29T02:35:45;98125.19;;;6.32;87.00
20710;BME280;10516;51.518;9.864;2023-12-29T02:38:11;98114.53;;;6.27;86.42
20710;BME280;10516;51.518;9.864;2023-12-29T02:40:37;98105.34;;;6.18;87.00
20710;BME280;10516;51.518;9.864;2023-12-29T02:43:02;98116.25;;;6.21;86.82
20710;BME280;10516;51.518;9.864;2023-12-29T02:45:28;98095.78;;;6.17;86.94
20710;BME280;10516;51.518;9.864;2023-12-29T02:47:54;98101.06;;;6.17;86.95
20710;BME280;10516;51.518;9.864;2023-12-29T02:50:19;98103.97;;;6.15;86.77
20710;BME280;10516;51.518;9.864;2023-12-29T02:52:44;98114.47;;;6.10;86.47
20710;BME280;10516;51.518;9.864;2023-12-29T02:55:10;98114.81;;;6.14;86.66
20710;BME280;10516;51.518;9.864;2023-12-29T02:57:35;98107.50;;;6.21;87.24
20710;BME280;10516;51.518;9.864;2023-12-29T03:00:01;98105.81;;;6.15;87.10
20710;BME280;10516;51.518;9.864;2023-12-29T03:02:26;98111.44;;;6.18;86.92
20710;BME280;10516;51.518;9.864;2023-12-29T03:04:51;98106.94;;;6.19;87.14
20710;BME280;10516;51.518;9.864;2023-12-29T03:07:17;98108.00;;;6.18;86.66
20710;BME280;10516;51.518;9.864;2023-12-29T03:09:42;98105.56;;;6.16;86.83
20710;BME280;10516;51.518;9.864;2023-12-29T03:12:08;98108.94;;;6.12;86.13
20710;BME280;10516;51.518;9.864;2023-12-29T03:14:33;98108.34;;;6.10;86.75
20710;BME280;10516;51.518;9.864;2023-12-29T03:16:59;98112.94;;;6.14;86.43
20710;BME280;10516;51.518;9.864;2023-12-29T03:19:24;98105.41;;;6.23;86.70
20710;BME280;10516;51.518;9.864;2023-12-29T03:21:50;98095.38;;;6.08;86.19
20710;BME280;10516;51.518;9.864;2023-12-29T03:24:16;98081.66;;;6.11;86.01
20710;BME280;10516;51.518;9.864;2023-12-29T03:26:41;98084.38;;;6.16;86.26
20710;BME280;10516;51.518;9.864;2023-12-29T03:29:07;98072.78;;;6.05;86.26
20710;BME280;10516;51.518;9.864;2023-12-29T03:31:32;98095.13;;;6.10;86.71
20710;BME280;10516;51.518;9.864;2023-12-29T03:33:58;98079.78;;;6.12;85.99
20710;BME280;10516;51.518;9.864;2023-12-29T03:36:23;98092.47;;;6.10;86.23
20710;BME280;10516;51.518;9.864;2023-12-29T03:38:48;98071.63;;;6.13;85.62
20710;BME280;10516;51.518;9.864;2023-12-29T03:41:14;98076.66;;;6.15;85.93
20710;BME280;10516;51.518;9.864;2023-12-29T03:43:39;98079.78;;;6.12;85.73
20710;BME280;10516;51.518;9.864;2023-12-29T03:46:18;98070.25;;;6.11;86.51
20710;BME280;10516;51.518;9.864;2023-12-29T03:48:44;98062.31;;;6.11;86.00
20710;BME280;10516;51.518;9.864;2023-12-29T03:51:09;98053.22;;;6.07;85.70
20710;BME280;10516;51.518;9.864;2023-12-29T03:53:35;98042.47;;;6.13;85.87
20710;BME280;10516;51.518;9.864;2023-12-29T03:56:04;98038.22;;;6.12;86.08
20710;BME280;10516;51.518;9.864;2023-12-29T03:58:30;98041.75;;;6.18;86.29
20710;BME280;10516;51.518;9.864;2023-12-29T04:00:55;98026.34;;;6.15;85.92
20710;BME280;10516;51.518;9.864;2023-12-29T04:03:21;98055.06;;;6.23;85.97
20710;BME280;10516;51.518;9.864;2023-12-29T04:05:46;98055.06;;;6.23;85.76
20710;BME280;10516;51.518;9.864;2023-12-29T04:08:12;98051.72;;;6.27;86.07
20710;BME280;10516;51.518;9.864;2023-12-29T04:10:38;98057.81;;;6.28;85.63
20710;BME280;10516;51.518;9.864;2023-12-29T04:13:03;98059.91;;;6.26;85.75
20710;BME280;10516;51.518;9.864;2023-12-29T04:15:29;98047.13;;;6.23;86.00
20710;BME280;10516;51.518;9.864;2023-12-29T04:17:54;98054.59;;;6.26;86.81
20710;BME280;10516;51.518;9.864;2023-12-29T04:20:19;98049.88;;;6.28;85.99
20710;BME280;10516;51.518;9.864;2023-12-29T04:22:46;98040.78;;;6.24;86.24
20710;BME280;10516;51.518;9.864;2023-12-29T04:25:12;98040.78;;;6.24;85.83
20710;BME280;10516;51.518;9.864;2023-12-29T04:27:39;98053.06;;;6.30;86.30
20710;BME280;10516;51.518;9.864;2023-12-29T04:30:05;98015.03;;;6.19;85.73
20710;BME280;10516;51.518;9.864;2023-12-29T04:32:30;98030.34;;;6.17;86.35
20710;BME280;10516;51.518;9.864;2023-12-29T04:34:56;98045.03;;;6.25;86.45
20710;BME280;10516;51.518;9.864;2023-12-29T04:37:21;98049.78;;;6.23;86.83
20710;BME280;10516;51.518;9.864;2023-12-29T04:39:46;98031.47;;;6.21;86.72
20710;BME280;10516;51.518;9.864;2023-12-29T04:42:12;98033.09;;;6.22;86.59
20710;BME280;10516;51.518;9.864;2023-12-29T04:44:37;98023.53;;;6.21;86.79
20710;BME280;10516;51.518;9.864;2023-12-29T04:47:03;98038.72;;;6.26;86.59
20710;BME280;10516;51.518;9.864;2023-12-29T04:49:29;98008.34;;;6.17;87.00
20710;BME280;10516;51.518;9.864;2023-12-29T04:51:54;98027.00;;;6.22;86.40
20710;BME280;10516;51.518;9.864;2023-12-29T04:54:19;98036.06;;;6.26;86.87
20710;BME280;10516;51.518;9.864;2023-12-29T04:56:45;98038.47;;;6.27;86.52
20710;BME280;10516;51.518;9.864;2023-12-29T04:59:10;98033.09;;;6.22;86.12
20710;BME280;10516;51.518;9.864;2023-12-29T05:01:35;98018.06;;;6.28;86.66
20710;BME280;10516;51.518;9.864;2023-12-29T05:04:01;98026.28;;;6.26;86.72
20710;BME280;10516;51.518;9.864;2023-12-29T05:06:26;98027.47;;;6.19;87.80
20710;BME280;10516;51.518;9.864;2023-12-29T05:08:51;98024.75;;;6.30;87.07
20710;BME280;10516;51.518;9.864;2023-12-29T05:11:17;98029.28;;;6.18;87.44
20710;BME280;10516;51.518;9.864;2023-12-29T05:13:42;98019.75;;;6.17;88.12
20710;BME280;10516;51.518;9.864;2023-12-29T05:16:07;98035.50;;;6.24;88.91
20710;BME280;10516;51.518;9.864;2023-12-29T05:18:33;98035.75;;;6.22;88.11
20710;BME280;10516;51.518;9.864;2023-12-29T05:20:58;98028.56;;;6.23;88.06
20710;BME280;10516;51.518;9.864;2023-12-29T05:23:23;98042.16;;;6.26;89.35
20710;BME280;10516;51.518;9.864;2023-12-29T05:25:49;98033.00;;;6.17;87.92
20710;BME280;10516;51.518;9.864;2023-12-29T05:28:14;98037.34;;;6.23;88.77
20710;BME280;10516;51.518;9.864;2023-12-29T05:30:39;98040.25;;;6.22;89.16
20710;BME280;10516;51.518;9.864;2023-12-29T05:33:05;98042.88;;;6.22;88.97
20710;BME280;10516;51.518;9.864;2023-12-29T05:35:30;98038.97;;;6.24;89.00
20710;BME280;10516;51.518;9.864;2023-12-29T05:37:55;98040.78;;;6.24;88.38
20710;BME280;10516;51.518;9.864;2023-12-29T05:40:21;98054.03;;;6.24;88.89
20710;BME280;10516;51.518;9.864;2023-12-29T05:42:46;98036.69;;;6.16;89.24
20710;BME280;10516;51.518;9.864;2023-12-29T05:45:11;98054.50;;;6.21;89.35
20710;BME280;10516;51.518;9.864;2023-12-29T05:47:37;98056.28;;;6.15;89.58
20710;BME280;10516;51.518;9.864;2023-12-29T05:50:03;98059.59;;;6.22;89.12
20710;BME280;10516;51.518;9.864;2023-12-29T05:52:28;98050.03;;;6.21;88.96
20710;BME280;10516;51.518;9.864;2023-12-29T05:54:54;98061.53;;;6.27;88.74
20710;BME280;10516;51.518;9.864;2023-12-29T05:57:19;98054.28;;;6.22;89.29
20710;BME280;10516;51.518;9.864;2023-12-29T05:59:44;98054.28;;;6.22;88.58
20710;BME280;10516;51.518;9.864;2023-12-29T06:02:10;98044.16;;;6.19;88.61
20710;BME280;10516;51.518;9.864;2023-12-29T06:04:35;98061.09;;;6.18;89.22
20710;BME280;10516;51.518;9.864;2023-12-29T06:07:00;98067.19;;;6.19;88.85
20710;BME280;10516;51.518;9.864;2023-12-29T06:09:26;98048.66;;;6.19;88.36
20710;BME280;10516;51.518;9.864;2023-12-29T06:11:52;98058.69;;;6.17;88.38
20710;BME280;10516;51.518;9.864;2023-12-29T06:14:17;98057.09;;;6.16;88.77
20710;BME280;10516;51.518;9.864;2023-12-29T06:16:43;98053.28;;;6.12;89.36
20710;BME280;10516;51.518;9.864;2023-12-29T06:19:08;98044.72;;;6.04;88.36
20710;BME280;10516;51.518;9.864;2023-12-29T06:21:41;98051.16;;;6.09;88.82
20710;BME280;10516;51.518;9.864;2023-12-29T06:24:07;98040.69;;;6.02;89.09
20710;BME280;10516;51.518;9.864;2023-12-29T06:26:32;98070.41;;;6.04;88.92
20710;BME280;10516;51.518;9.864;2023-12-29T06:28:57;98058.13;;;6.15;89.06
20710;BME280;10516;51.518;9.864;2023-12-29T06:31:23;98068.16;;;6.13;89.39
20710;BME280;10516;51.518;9.864;2023-12-29T06:33:50;98035.91;;;6.16;89.71
20710;BME280;10516;51.518;9.864;2023-12-29T06:36:15;98064.00;;;6.17;89.52
20710;BME280;10516;51.518;9.864;2023-12-29T06:38:40;98059.09;;;6.09;89.82
20710;BME280;10516;51.518;9.864;2023-12-29T06:41:06;98057.00;;;6.11;89.85
20710;BME280;10516;51.518;9.864;2023-12-29T06:43:32;98069.53;;;6.15;89.83
20710;BME280;10516;51.518;9.864;2023-12-29T06:45:57;98060.63;;;6.04;89.91
20710;BME280;10516;51.518;9.864;2023-12-29T06:48:23;98076.91;;;6.13;89.71
20710;BME280;10516;51.518;9.864;2023-12-29T06:50:48;98076.50;;;6.04;90.17
20710;BME280;10516;51.518;9.864;2023-12-29T06:53:14;98077.06;;;6.07;90.53
20710;BME280;10516;51.518;9.864;2023-12-29T06:55:39;98080.84;;;6.11;89.84
20710;BME280;10516;51.518;9.864;2023-12-29T06:58:05;98074.16;;;6.08;90.12
20710;BME280;10516;51.518;9.864;2023-12-29T07:00:30;98068.63;;;6.10;89.87
20710;BME280;10516;51.518;9.864;2023-12-29T07:02:56;98063.72;;;6.01;90.02
20710;BME280;10516;51.518;9.864;2023-12-29T07:05:21;98070.16;;;6.05;90.42
20710;BME280;10516;51.518;9.864;2023-12-29T07:07:47;98068.31;;;6.06;89.86
20710;BME280;10516;51.518;9.864;2023-12-29T07:10:13;98085.56;;;6.09;90.00
20710;BME280;10516;51.518;9.864;2023-12-29T07:12:40;98082.69;;;6.10;90.03
20710;BME280;10516;51.518;9.864;2023-12-29T07:15:06;98103.22;;;6.03;89.95
20710;BME280;10516;51.518;9.864;2023-12-29T07:17:31;98096.41;;;6.07;88.97
20710;BME280;10516;51.518;9.864;2023-12-29T07:19:56;98093.09;;;6.00;89.95
20710;BME280;10516;51.518;9.864;2023-12-29T07:22:22;98089.75;;;6.04;89.48
20710;BME280;10516;51.518;9.864;2023-12-29T07:24:47;98094.34;;;6.09;90.00
20710;BME280;10516;51.518;9.864;2023-12-29T07:27:13;98105.97;;;6.08;89.21
20710;BME280;10516;51.518;9.864;2023-12-29T07:29:38;98101.88;;;6.00;88.88
20710;BME280;10516;51.518;9.864;2023-12-29T07:32:04;98112.06;;;6.09;89.60
20710;BME280;10516;51.518;9.864;2023-12-29T07:34:29;98128.06;;;6.14;89.46
20710;BME280;10516;51.518;9.864;2023-12-29T07:36:56;98111.00;;;6.10;88.92
20710;BME280;10516;51.518;9.864;2023-12-29T07:39:24;98108.34;;;6.10;88.80
20710;BME280;10516;51.518;9.864;2023-12-29T07:41:49;98115.75;;;6.07;89.85
20710;BME280;10516;51.518;9.864;2023-12-29T07:44:16;98122.91;;;6.07;89.88
20710;BME280;10516;51.518;9.864;2023-12-29T07:46:42;98113.59;;;6.04;90.07
20710;BME280;10516;51.518;9.864;2023-12-29T07:49:08;98111.25;;;6.08;90.31
20710;BME280;10516;51.518;9.864;2023-12-29T07:51:33;98112.72;;;6.16;89.83
20710;BME280;10516;51.518;9.864;2023-12-29T07:53:59;98105.81;;;6.15;89.76
20710;BME280;10516;51.518;9.864;2023-12-29T07:56:24;98106.38;;;6.17;89.75
20710;BME280;10516;51.518;9.864;2023-12-29T07:58:50;98118.75;;;6.11;90.33
20710;BME280;10516;51.518;9.864;2023-12-29T08:01:15;98103.47;;;6.18;90.02
20710;BME280;10516;51.518;9.864;2023-12-29T08:03:41;98113.75;;;6.15;90.77
20710;BME280;10516;51.518;9.864;2023-12-29T08:06:06;98113.19;;;6.13;90.39
20710;BME280;10516;51.518;9.864;2023-12-29T08:08:32;98110.81;;;6.28;90.44
20710;BME280;10516;51.518;9.864;2023-12-29T08:10:57;98112.09;;;6.25;89.95
20710;BME280;10516;51.518;9.864;2023-12-29T08:13:22;98105.66;;;6.21;89.62
20710;BME280;10516;51.518;9.864;2023-12-29T08:15:48;98112.03;;;6.20;89.78
20710;BME280;10516;51.518;9.864;2023-12-29T08:18:13;98113.94;;;6.25;89.50
20710;BME280;10516;51.518;9.864;2023-12-29T08:20:38;98106.38;;;6.17;90.68
20710;BME280;10516;51.518;9.864;2023-12-29T08:23:04;98102.06;;;6.27;89.74
20710;BME280;10516;51.518;9.864;2023-12-29T08:25:29;98111.63;;;6.28;89.68
20710;BME280;10516;51.518;9.864;2023-12-29T08:27:58;98108.16;;;6.11;90.07
20710;BME280;10516;51.518;9.864;2023-12-29T08:30:23;98090.00;;;6.20;89.68
20710;BME280;10516;51.518;9.864;2023-12-29T08:32:48;98102.97;;;6.33;89.09
20710;BME280;10516;51.518;9.864;2023-12-29T08:35:14;98100.38;;;6.21;89.62
20710;BME280;10516;51.518;9.864;2023-12-29T08:37:39;98107.13;;;6.29;89.21
20710;BME280;10516;51.518;9.864;2023-12-29T08:40:05;98105.66;;;6.21;89.77
20710;BME280;10516;51.518;9.864;2023-12-29T08:42:31;98106.97;;;6.35;88.63
20710;BME280;10516;51.518;9.864;2023-12-29T08:44:58;98099.34;;;6.39;89.14
20710;BME280;10516;51.518;9.864;2023-12-29T08:47:24;98087.78;;;6.28;89.21
20710;BME280;10516;51.518;9.864;2023-12-29T08:49:49;98096.94;;;6.37;89.81
20710;BME280;10516;51.518;9.864;2023-12-29T08:52:15;98107.59;;;6.42;88.93
20710;BME280;10516;51.518;9.864;2023-12-29T08:54:40;98098.31;;;6.40;89.41
20710;BME280;10516;51.518;9.864;2023-12-29T08:57:05;98089.88;;;6.43;89.53
20710;BME280;10516;51.518;9.864;2023-12-29T08:59:32;98090.94;;;6.42;88.71
20710;BME280;10516;51.518;9.864;2023-12-29T09:01:57;98092.03;;;6.46;89.39
20710;BME280;10516;51.518;9.864;2023-12-29T09:04:23;98079.03;;;6.44;89.49
20710;BME280;10516;51.518;9.864;2023-12-29T09:06:48;98079.50;;;6.41;89.94
20710;BME280;10516;51.518;9.864;2023-12-29T09:09:13;98082.56;;;6.50;89.85
20710;BME280;10516;51.518;9.864;2023-12-29T09:11:39;98088.69;;;6.50;89.90
20710;BME280;10516;51.518;9.864;2023-12-29T09:14:05;98084.75;;;6.53;89.93
20710;BME280;10516;51.518;9.864;2023-12-29T09:16:31;98083.38;;;6.50;89.08
20710;BME280;10516;51.518;9.864;2023-12-29T09:18:56;98087.47;;;6.58;90.08
20710;BME280;10516;51.518;9.864;2023-12-29T09:21:21;98076.06;;;6.57;90.10
20710;BME280;10516;51.518;9.864;2023-12-29T09:23:47;98067.78;;;6.54;89.84
20710;BME280;10516;51.518;9.864;2023-12-29T09:26:12;98065.22;;;6.59;89.56
20710;BME280;10516;51.518;9.864;2023-12-29T09:28:41;98070.03;;;6.62;89.93
20710;BME280;10516;51.518;9.864;2023-12-29T09:31:08;98079.91;;;6.66;89.88
20710;BME280;10516;51.518;9.864;2023-12-29T09:33:33;98083.63;;;6.65;89.61
20710;BME280;10516;51.518;9.864;2023-12-29T09:35:58;98084.47;;;6.71;89.23
20710;BME280;10516;51.518;9.864;2023-12-29T09:38:24;98083.38;;;6.67;89.14
20710;BME280;10516;51.518;9.864;2023-12-29T09:40:50;98074.03;;;6.64;89.48
20710;BME280;10516;51.518;9.864;2023-12-29T09:43:17;98085.69;;;6.80;89.80
20710;BME280;10516;51.518;9.864;2023-12-29T09:45:45;98083.59;;;6.82;88.87
20710;BME280;10516;51.518;9.864;2023-12-29T09:48:13;98077.56;;;6.87;89.90
20710;BME280;10516;51.518;9.864;2023-12-29T09:50:40;98098.78;;;6.87;89.72
20710;BME280;10516;51.518;9.864;2023-12-29T09:53:06;98091.06;;;6.85;89.17
20710;BME280;10516;51.518;9.864;2023-12-29T09:55:32;98101.03;;;6.78;90.04
20710;BME280;10516;51.518;9.864;2023-12-29T09:57:59;98085.69;;;6.80;90.29
20710;BME280;10516;51.518;9.864;2023-12-29T10:00:26;98089.44;;;6.84;90.47
20710;BME280;10516;51.518;9.864;2023-12-29T10:02:52;98106.25;;;6.90;90.66
20710;BME280;10516;51.518;9.864;2023-12-29T10:05:18;98111.78;;;6.88;90.92
20710;BME280;10516;51.518;9.864;2023-12-29T10:07:45;98105.31;;;6.79;91.74
20710;BME280;10516;51.518;9.864;2023-12-29T10:10:15;98098.63;;;6.76;92.63
20710;BME280;10516;51.518;9.864;2023-12-29T10:12:47;98093.97;;;6.67;93.15
20710;BME280;10516;51.518;9.864;2023-12-29T10:15:35;98111.81;;;6.71;94.21
20710;BME280;10516;51.518;9.864;2023-12-29T10:18:14;98110.78;;;6.72;94.07
20710;BME280;10516;51.518;9.864;2023-12-29T10:20:59;98104.81;;;6.65;94.15
20710;BME280;10516;51.518;9.864;2023-12-29T10:23:40;98111.41;;;6.63;94.45
20710;BME280;10516;51.518;9.864;2023-12-29T10:26:07;98108.59;;;6.69;94.65
20710;BME280;10516;51.518;9.864;2023-12-29T10:28:35;98095.09;;;6.71;93.82
20710;BME280;10516;51.518;9.864;2023-12-29T10:31:01;98115.28;;;6.72;94.08
20710;BME280;10516;51.518;9.864;2023-12-29T10:33:26;98107.63;;;6.75;94.90
20710;BME280;10516;51.518;9.864;2023-12-29T10:35:59;98113.19;;;6.74;95.65
20710;BME280;10516;51.518;9.864;2023-12-29T10:38:29;98099.28;;;6.67;95.42
20710;BME280;10516;51.518;9.864;2023-12-29T10:40:54;98102.09;;;6.77;95.77
20710;BME280;10516;51.518;9.864;2023-12-29T10:43:23;98102.41;;;6.80;95.26
20710;BME280;10516;51.518;9.864;2023-12-29T10:45:49;98099.59;;;6.87;94.98
20710;BME280;10516;51.518;9.864;2023-12-29T10:48:23;98106.66;;;6.81;95.80
20710;BME280;10516;51.518;9.864;2023-12-29T10:50:49;98110.63;;;6.79;96.41
20710;BME280;10516;51.518;9.864;2023-12-29T10:53:15;98113.25;;;6.79;96.57
20710;BME280;10516;51.518;9.864;2023-12-29T10:55:43;98106.66;;;6.65;96.21
20710;BME280;10516;51.518;9.864;2023-12-29T10:58:09;98111.97;;;6.65;95.82
20710;BME280;10516;51.518;9.864;2023-12-29T11:00:34;98125.63;;;6.73;96.55
20710;BME280;10516;51.518;9.864;2023-12-29T11:02:59;98131.03;;;6.78;96.47
20710;BME280;10516;51.518;9.864;2023-12-29T11:05:25;98130.13;;;6.73;96.29
20710;BME280;10516;51.518;9.864;2023-12-29T11:07:52;98123.69;;;6.69;97.10
20710;BME280;10516;51.518;9.864;2023-12-29T11:10:23;98129.09;;;6.74;96.13
20710;BME280;10516;51.518;9.864;2023-12-29T11:12:48;98106.75;;;6.70;96.60
20710;BME280;10516;51.518;9.864;2023-12-29T11:15:15;98089.78;;;6.71;96.24
20710;BME280;10516;51.518;9.864;2023-12-29T11:17:42;98086.00;;;6.67;97.11
20710;BME280;10516;51.518;9.864;2023-12-29T11:20:15;98110.22;;;6.70;97.13
20710;BME280;10516;51.518;9.864;2023-12-29T11:22:46;98102.00;;;6.72;97.22
20710;BME280;10516;51.518;9.864;2023-12-29T11:25:12;98103.00;;;6.66;97.58
20710;BME280;10516;51.518;9.864;2023-12-29T11:27:38;98108.91;;;6.73;98.24
20710;BME280;10516;51.518;9.864;2023-12-29T11:30:04;98103.13;;;6.76;96.98
20710;BME280;10516;51.518;9.864;2023-12-29T11:32:41;98107.56;;;6.70;96.45
20710;BME280;10516;51.518;9.864;2023-12-29T11:40:25;98109.88;;;6.67;97.66
20710;BME280;10516;51.518;9.864;2023-12-29T11:42:54;98096.97;;;6.70;97.97
20710;BME280;10516;51.518;9.864;2023-12-29T11:45:30;98080.97;;;6.65;98.34
20710;BME280;10516;51.518;9.864;2023-12-29T11:48:01;98087.06;;;6.66;98.00
20710;BME280;10516;51.518;9.864;2023-12-29T11:50:31;98104.25;;;6.80;98.40
20710;BME280;10516;51.518;9.864;2023-12-29T11:52:58;98097.41;;;6.84;98.07
20710;BME280;10516;51.518;9.864;2023-12-29T11:55:34;98099.13;;;6.90;98.42
20710;BME280;10516;51.518;9.864;2023-12-29T11:58:00;98076.13;;;6.79;97.04
20710;BME280;10516;51.518;9.864;2023-12-29T12:00:45;98090.34;;;6.90;97.70
20710;BME280;10516;51.518;9.864;2023-12-29T12:05:49;98100.69;;;6.91;97.18
20710;BME280;10516;51.518;9.864;2023-12-29T12:08:27;98099.97;;;6.96;97.09
20710;BME280;10516;51.518;9.864;2023-12-29T12:10:53;98085.44;;;6.98;96.59
20710;BME280;10516;51.518;9.864;2023-12-29T12:13:45;98066.34;;;7.01;96.16
20710;BME280;10516;51.518;9.864;2023-12-29T12:19:12;98061.63;;;7.03;95.74
20710;BME280;10516;51.518;9.864;2023-12-29T12:21:37;98058.81;;;7.10;95.05
20710;BME280;10516;51.518;9.864;2023-12-29T12:24:04;98056.81;;;7.00;96.84
20710;BME280;10516;51.518;9.864;2023-12-29T12:26:33;98060.31;;;7.06;96.51
20710;BME280;10516;51.518;9.864;2023-12-29T12:29:03;98065.69;;;7.11;96.02
20710;BME280;10516;51.518;9.864;2023-12-29T12:31:29;98068.53;;;7.04;96.46
20710;BME280;10516;51.518;9.864;2023-12-29T12:36:21;98011.72;;;7.00;95.88
20710;BME280;10516;51.518;9.864;2023-12-29T12:38:54;97989.00;;;6.88;96.46
20710;BME280;10516;51.518;9.864;2023-12-29T12:41:24;98015.66;;;6.98;97.10
20710;BME280;10516;51.518;9.864;2023-12-29T12:46:27;98016.13;;;6.95;97.92
20710;BME280;10516;51.518;9.864;2023-12-29T12:48:53;98030.75;;;6.97;98.36
20710;BME280;10516;51.518;9.864;2023-12-29T12:51:21;98010.44;;;6.86;99.24
20710;BME280;10516;51.518;9.864;2023-12-29T12:53:47;98018.72;;;6.90;99.05
20710;BME280;10516;51.518;9.864;2023-12-29T12:56:15;98018.56;;;6.96;98.95
20710;BME280;10516;51.518;9.864;2023-12-29T12:58:42;98029.47;;;7.00;99.43
20710;BME280;10516;51.518;9.864;2023-12-29T13:01:08;98038.22;;;7.00;98.56
20710;BME280;10516;51.518;9.864;2023-12-29T13:03:33;98016.75;;;7.02;98.67
20710;BME280;10516;51.518;9.864;2023-12-29T13:06:00;98015.38;;;6.99;99.09
20710;BME280;10516;51.518;9.864;2023-12-29T13:08:26;98022.56;;;6.99;99.28
20710;BME280;10516;51.518;9.864;2023-12-29T13:10:52;98024.88;;;7.12;99.46
20710;BME280;10516;51.518;9.864;2023-12-29T13:13:18;98024.50;;;7.03;98.66
20710;BME280;10516;51.518;9.864;2023-12-29T13:15:51;98019.97;;;7.04;100.00
20710;BME280;10516;51.518;9.864;2023-12-29T13:18:28;98017.00;;;7.00;99.93
20710;BME280;10516;51.518;9.864;2023-12-29T13:20:54;98027.19;;;7.08;99.52
20710;BME280;10516;51.518;9.864;2023-12-29T13:23:19;98028.00;;;7.09;99.91
20710;BME280;10516;51.518;9.864;2023-12-29T13:25:46;98022.38;;;7.05;99.51